Detall de PIREP

Printer-friendly versionPDF version

[2010/08/15 07:02:00]
Flight IATA:CT2111
Pilot Number:041
Company ICAO:CAT
Aircraft Type:F70/A
PAX:59
Departing Airport: LEST
Destination Airport: LEVC
Alternate Airport:LEAL
Online: VATSIM
Route:FORNO A33 ZMR A33 DISKO A33 INDEG A33 MAGIN A33 HORTA A33 CJN A33 PRADO A33 CENTA
Flight Level:FL180
No Slew and time accel
No pause
Crash detect
Detect pilot in Cockpit between each 30 and 45 minutes
07:02 Zero fuel Weight: 70284 Lbs, Fuel Weight: 8289 Lbs
07:02 VATSIM:LEST 150630Z 02011KT 360V060 9999 SCT032 12/12 Q1019 NOSIG
07:02 VATSIM:LEVC 150630Z 00000KT 9999 FEW025 BKN035 23/18 Q1016 NOSIG
07:02 VOICE CATALONIAN
07:04 Parking Brakes off
07:11 Take-off
07:11 Take off Weight: 78159 Lbs
07:11 Wind: 026º @ 010 Knots Heading: 346º
07:11 POS N42º 54´ 04´´ W008º 25´ 00´´
07:11 Gear Up: 198 Knots
07:11 Flaps:1 at 199 Knots
07:11 Flaps:0 at 234 Knots
07:23 TOC
07:23 Fuel Weight: 6578 Lb
07:26 Wind:344º@018 Knots Heading: 122º Ground Speed: 398 Knots Altitude 18192 ft
07:41 Wind:314º@026 Knots Heading: 114º Ground Speed: 406 Knots Altitude 18152 ft
07:56 Wind:278º@027 Knots Heading: 118º Ground Speed: 411 Knots Altitude 18110 ft
08:04 TOD
08:04 Fuel Weight: 3130 Lb
08:11 Wind:178º@007 Knots Heading: 120º Ground Speed: 283 Knots Altitude 6778 ft
08:25 Flaps:1 at 211 Knots
08:26 Wind:094º@004 Knots Heading: 091º Ground Speed: 210 Knots Altitude 3776 ft
08:30 Flaps:2 at 197 Knots
08:32 Flaps:3 at 172 Knots
08:32 Gear Down: 167 Knots
08:33 Flaps:4 at 157 Knots
08:36 TouchDown:Rate -154 ft/min Speed: 116 Knots
08:36 VATSIM:LEVC 150800Z 07007KT 9999 SCT030 24/17 Q1016 NOSIG
08:36 Land
08:36 Wind:063º@002 Knots
08:36 Heading: 295º
08:36 Flight Duration: 01:25
08:36 Landing Weight: 71920 Lbs
08:36 POS N39º 29´ 15´´ W000º 28´ 38´´
08:38 Parking brakes on
08:38 Block to Block Duration: 01:34
08:38 Final Fuel: 1554 Lbls
08:38 Spent Fuel: 6735 Lbls
08:38 Flight Length: 470 NM
08:38 TOD Land Length: 131 NM

Exportar CSV

Powered by Drupal - Modified by Danger4k